createdAt,value
2023-02-25T00:01:57.665Z,97105.69
2023-02-25T00:04:29.564Z,97126.97
2023-02-25T00:06:56.086Z,97131.75
2023-02-25T00:09:23.188Z,97127.25
2023-02-25T00:11:50.144Z,97134.91
2023-02-25T00:14:16.597Z,97124.00
2023-02-25T00:16:44.389Z,97148.47
2023-02-25T00:19:10.916Z,97140.72
2023-02-25T00:21:38.153Z,97158.78
2023-02-25T00:24:16.073Z,97157.47
2023-02-25T00:26:44.858Z,97154.97
2023-02-25T00:29:13.181Z,97162.16
2023-02-25T00:31:39.872Z,97175.50
2023-02-25T00:34:06.446Z,97167.28
2023-02-25T00:36:33.287Z,97168.63
2023-02-25T00:38:59.839Z,97166.53
2023-02-25T00:41:28.136Z,97170.81
2023-02-25T00:43:56.032Z,97154.91
2023-02-25T00:46:23.245Z,97157.03
2023-02-25T00:48:50.345Z,97154.81
2023-02-25T00:51:18.539Z,97155.84
2023-02-25T00:53:45.139Z,97171.34
2023-02-25T00:56:15.964Z,97169.28
2023-02-25T00:58:46.781Z,97158.13
2023-02-25T01:01:27.521Z,97172.00
2023-02-25T01:03:56.549Z,97165.59
2023-02-25T01:06:24.548Z,97163.97
2023-02-25T01:08:51.592Z,97171.41
2023-02-25T01:11:39.630Z,97170.94
2023-02-25T01:14:07.513Z,97176.78
2023-02-25T01:16:35.144Z,97167.78
2023-02-25T01:19:03.967Z,97165.63
2023-02-25T01:21:35.199Z,97179.44
2023-02-25T01:24:03.895Z,97161.41
2023-02-25T01:26:31.912Z,97173.63
2023-02-25T01:28:59.970Z,97175.56
2023-02-25T01:31:29.618Z,97166.84
2023-02-25T01:34:00.185Z,97168.97
2023-02-25T01:36:27.315Z,97167.63
2023-02-25T01:38:53.921Z,97161.53
2023-02-25T01:41:20.379Z,97145.63
2023-02-25T01:44:03.223Z,97148.25
2023-02-25T01:46:30.024Z,97135.53
2023-02-25T01:48:57.098Z,97129.09
2023-02-25T01:51:27.125Z,97132.28
2023-02-25T01:53:55.706Z,97144.25
2023-02-25T01:56:23.629Z,97140.81
2023-02-25T01:58:50.375Z,97136.56
2023-02-25T02:01:19.181Z,97132.00
2023-02-25T02:03:47.246Z,97139.16
2023-02-25T02:06:21.614Z,97145.06
2023-02-25T02:08:49.603Z,97143.50
2023-02-25T02:11:16.202Z,97141.91
2023-02-25T02:13:44.860Z,97153.06
2023-02-25T02:16:15.387Z,97150.38
2023-02-25T02:18:46.498Z,97142.44
2023-02-25T02:21:19.013Z,97144.56
2023-02-25T02:24:00.710Z,97141.66
2023-02-25T02:26:27.567Z,97144.88
2023-02-25T02:28:55.175Z,97148.06
2023-02-25T02:31:21.763Z,97142.50
2023-02-25T02:33:51.579Z,97145.16
2023-02-25T02:36:27.565Z,97133.75
2023-02-25T02:39:04.728Z,97140.91
2023-02-25T02:41:35.792Z,97139.00
2023-02-25T02:44:14.024Z,97124.59
2023-02-25T02:46:45.903Z,97128.56
2023-02-25T02:49:15.968Z,97144.00
2023-02-25T02:51:48.433Z,97156.47
2023-02-25T02:54:15.937Z,97155.69
2023-02-25T02:56:43.522Z,97171.06
2023-02-25T02:59:27.678Z,97158.84
2023-02-25T03:01:58.127Z,97166.53
2023-02-25T03:04:28.074Z,97159.34
2023-02-25T03:07:02.717Z,97166.78
2023-02-25T03:09:33.566Z,97160.38
2023-02-25T03:12:01.157Z,97162.22
2023-02-25T03:14:28.065Z,97174.69
2023-02-25T03:17:14.564Z,97172.03
2023-02-25T03:19:57.628Z,97182.63
2023-02-25T03:22:31.217Z,97183.16
2023-02-25T03:25:02.645Z,97179.19
2023-02-25T03:27:35.439Z,97185.28
2023-02-25T03:30:07.470Z,97186.88
2023-02-25T03:32:37.631Z,97193.22
2023-02-25T03:35:06.164Z,97205.94
2023-02-25T03:37:32.991Z,97208.34
2023-02-25T03:40:01.336Z,97217.09
2023-02-25T03:42:31.128Z,97222.41
2023-02-25T03:45:02.021Z,97228.25
2023-02-25T03:47:30.509Z,97226.59
2023-02-25T03:50:07.852Z,97223.13
2023-02-25T03:52:34.782Z,97237.25
2023-02-25T03:55:01.848Z,97253.44
2023-02-25T03:57:35.366Z,97250.00
2023-02-25T04:00:03.497Z,97260.63
2023-02-25T04:02:32.651Z,97263.84
2023-02-25T04:04:59.407Z,97260.34
2023-02-25T04:07:25.983Z,97257.16
2023-02-25T04:09:52.420Z,97262.75
2023-02-25T04:12:20.185Z,97270.69
2023-02-25T04:14:47.949Z,97277.06
2023-02-25T04:17:15.816Z,97267.50
2023-02-25T04:19:43.580Z,97271.75
2023-02-25T04:22:10.117Z,97280.22
2023-02-25T04:24:36.544Z,97280.22
2023-02-25T04:27:03.477Z,97290.31
2023-02-25T04:29:30.676Z,97286.34
2023-02-25T04:31:57.617Z,97290.31
2023-02-25T04:34:24.333Z,97290.06
2023-02-25T04:36:50.864Z,97290.31
2023-02-25T04:39:18.279Z,97294.03
2023-02-25T04:41:45.542Z,97301.47
2023-02-25T04:44:12.466Z,97313.13
2023-02-25T04:46:44.036Z,97315.53
2023-02-25T04:49:10.817Z,97324.53
2023-02-25T04:51:39.679Z,97335.44
2023-02-25T04:54:07.628Z,97343.16
2023-02-25T04:56:34.201Z,97340.25
2023-02-25T04:59:01.827Z,97341.31
2023-02-25T05:01:28.412Z,97346.09
2023-02-25T05:03:57.067Z,97340.28
2023-02-25T05:06:27.268Z,97325.94
2023-02-25T05:08:54.500Z,97320.09
2023-02-25T05:11:21.121Z,97326.47
2023-02-25T05:13:48.823Z,97327.53
2023-02-25T05:16:19.000Z,97320.63
2023-02-25T05:18:47.546Z,97321.66
2023-02-25T05:21:18.415Z,97327.75
2023-02-25T05:23:46.768Z,97320.34
2023-02-25T05:26:16.468Z,97316.63
2023-02-25T05:28:45.832Z,97326.44
2023-02-25T05:31:12.925Z,97339.66
2023-02-25T05:33:40.191Z,97327.97
2023-02-25T05:36:07.354Z,97352.91
2023-02-25T05:38:34.105Z,97346.53
2023-02-25T05:41:00.896Z,97348.13
2023-02-25T05:43:27.416Z,97346.81
2023-02-25T05:45:57.356Z,97357.16
2023-02-25T05:48:25.282Z,97355.28
2023-02-25T05:50:52.075Z,97368.81
2023-02-25T05:53:18.894Z,97360.28
2023-02-25T05:55:47.185Z,97365.31
2023-02-25T05:58:15.178Z,97374.09
2023-02-25T06:00:42.896Z,97381.50
2023-02-25T06:03:09.813Z,97373.50
2023-02-25T06:05:39.829Z,97389.44
2023-02-25T06:08:06.432Z,97397.91
2023-02-25T06:10:38.396Z,97408.53
2023-02-25T06:13:07.095Z,97411.97
2023-02-25T06:15:33.688Z,97410.66
2023-02-25T06:18:01.468Z,97416.53
2023-02-25T06:20:28.242Z,97424.19
2023-02-25T06:22:54.870Z,97430.28
2023-02-25T06:25:21.738Z,97432.41
2023-02-25T06:27:48.243Z,97439.31
2023-02-25T06:30:16.061Z,97456.81
2023-02-25T06:32:43.920Z,97470.09
2023-02-25T06:35:10.426Z,97489.19
2023-02-25T06:37:36.881Z,97487.59
2023-02-25T06:40:04.875Z,97513.09
2023-02-25T06:42:31.311Z,97507.78
2023-02-25T06:44:57.874Z,97516.28
2023-02-25T06:47:24.464Z,97518.94
2023-02-25T06:49:52.146Z,97527.94
2023-02-25T06:52:19.886Z,97533.75
2023-02-25T06:54:46.336Z,97545.97
2023-02-25T06:57:12.857Z,97554.50
2023-02-25T06:59:39.365Z,97554.47
2023-02-25T07:02:06.328Z,97561.91
2023-02-25T07:04:32.952Z,97574.94
2023-02-25T07:06:59.609Z,97589.78
2023-02-25T07:09:27.517Z,97585.28
2023-02-25T07:11:53.931Z,97595.91
2023-02-25T07:14:20.497Z,97607.59
2023-02-25T07:16:47.498Z,97605.97
2023-02-25T07:19:17.129Z,97606.50
2023-02-25T07:21:44.073Z,97611.81
2023-02-25T07:24:12.879Z,97620.03
2023-02-25T07:26:40.988Z,97625.63
2023-02-25T07:29:07.513Z,97622.19
2023-02-25T07:31:34.068Z,97635.72
2023-02-25T07:34:03.622Z,97645.81
2023-02-25T07:36:35.361Z,97643.16
2023-02-25T07:39:03.320Z,97644.19
2023-02-25T07:41:30.220Z,97659.59
2023-02-25T07:43:56.744Z,97653.22
2023-02-25T07:46:24.687Z,97662.00
2023-02-25T07:48:51.237Z,97672.34
2023-02-25T07:51:20.629Z,97676.84
2023-02-25T07:53:47.956Z,97691.75
2023-02-25T07:56:15.539Z,97698.88
2023-02-25T07:58:42.279Z,97719.34
2023-02-25T08:01:08.857Z,97723.09
2023-02-25T08:03:35.515Z,97719.66
2023-02-25T08:06:02.945Z,97710.63
2023-02-25T08:08:29.423Z,97709.81
2023-02-25T08:10:55.977Z,97725.47
2023-02-25T08:13:22.415Z,97744.63
2023-02-25T08:15:50.190Z,97739.53
2023-02-25T08:18:16.775Z,97753.09
2023-02-25T08:20:47.583Z,97745.94
2023-02-25T08:23:14.158Z,97766.13
2023-02-25T08:25:41.248Z,97768.25
2023-02-25T08:28:08.179Z,97799.38
2023-02-25T08:30:36.364Z,97813.69
2023-02-25T08:33:04.062Z,97832.84
2023-02-25T08:35:30.687Z,97847.19
2023-02-25T08:37:57.150Z,97839.25
2023-02-25T08:40:23.605Z,97858.38
2023-02-25T08:42:50.224Z,97883.91
2023-02-25T08:45:16.815Z,97895.06
2023-02-25T08:47:43.256Z,97910.50
2023-02-25T08:50:10.476Z,97917.44
2023-02-25T08:52:36.919Z,97927.53
2023-02-25T08:55:05.028Z,97928.34
2023-02-25T08:57:31.740Z,97929.13
2023-02-25T08:59:59.513Z,97950.41
2023-02-25T09:02:25.960Z,97964.78
2023-02-25T09:04:52.576Z,97981.28
2023-02-25T09:07:20.581Z,97983.94
2023-02-25T09:09:47.105Z,98007.09
2023-02-25T09:12:13.641Z,98013.22
2023-02-25T09:14:40.126Z,98033.19
2023-02-25T09:17:06.661Z,98035.06
2023-02-25T09:19:33.604Z,98033.44
2023-02-25T09:22:01.415Z,98052.91
2023-02-25T09:24:30.018Z,98054.47
2023-02-25T09:26:56.938Z,98054.75
2023-02-25T09:29:23.925Z,98068.09
2023-02-25T09:31:50.762Z,98078.72
2023-02-25T09:34:18.363Z,98093.63
2023-02-25T09:36:44.839Z,98107.75
2023-02-25T09:39:11.672Z,98117.34
2023-02-25T09:41:40.929Z,98126.13
2023-02-25T09:44:15.777Z,98138.38
2023-02-25T09:46:48.513Z,98135.44
2023-02-25T09:49:17.810Z,98134.66
2023-02-25T09:51:46.017Z,98172.50
2023-02-25T09:54:20.353Z,98171.44
2023-02-25T09:56:46.985Z,98184.75
2023-02-25T09:59:15.552Z,98198.09
2023-02-25T10:02:02.335Z,98203.94
2023-02-25T10:04:41.201Z,98220.47
2023-02-25T10:07:16.499Z,98227.66
2023-02-25T10:09:57.732Z,98224.50
2023-02-25T10:12:24.201Z,98242.09
2023-02-25T10:15:09.402Z,98254.06
2023-02-25T10:17:46.663Z,98279.66
2023-02-25T10:20:19.142Z,98273.28
2023-02-25T10:22:51.383Z,98284.47
2023-02-25T10:25:19.059Z,98280.44
2023-02-25T10:27:55.746Z,98291.38
2023-02-25T10:30:29.201Z,98289.28
2023-02-25T10:32:56.133Z,98295.66
2023-02-25T10:35:25.436Z,98294.63
2023-02-25T10:37:53.768Z,98319.66
2023-02-25T10:40:22.462Z,98318.06
2023-02-25T10:42:50.562Z,98324.50
2023-02-25T10:45:22.356Z,98342.88
2023-02-25T10:47:52.086Z,98354.34
2023-02-25T10:50:23.048Z,98348.50
2023-02-25T10:52:56.807Z,98364.53
2023-02-25T10:55:28.249Z,98368.75
2023-02-25T10:57:54.945Z,98378.38
2023-02-25T11:00:22.516Z,98393.81
2023-02-25T11:02:50.121Z,98396.00
2023-02-25T11:05:36.994Z,98397.63
2023-02-25T11:08:07.781Z,98379.19
2023-02-25T11:10:35.095Z,98381.59
2023-02-25T11:13:03.629Z,98397.09
2023-02-25T11:15:43.685Z,98397.06
2023-02-25T11:18:43.575Z,98408.81
2023-02-25T11:21:14.640Z,98418.41
2023-02-25T11:23:44.077Z,98427.00
2023-02-25T11:26:29.112Z,98428.03
2023-02-25T11:28:59.314Z,98431.22
2023-02-25T11:31:29.866Z,98427.25
2023-02-25T11:33:59.375Z,98436.06
2023-02-25T11:36:30.268Z,98444.59
2023-02-25T11:39:16.059Z,98446.44
2023-02-25T11:41:43.778Z,98449.16
2023-02-25T11:44:30.160Z,98454.22
2023-02-25T11:46:56.934Z,98464.91
2023-02-25T11:49:32.140Z,98454.47
2023-02-25T11:52:19.936Z,98452.63
2023-02-25T11:54:55.378Z,98453.44
2023-02-25T11:57:29.329Z,98448.88
2023-02-25T12:00:14.814Z,98440.06
2023-02-25T12:02:41.287Z,98445.69
2023-02-25T12:05:07.902Z,98446.22
2023-02-25T12:07:37.220Z,98456.88
2023-02-25T12:10:12.881Z,98464.06
2023-02-25T12:12:59.599Z,98465.97
2023-02-25T12:15:45.250Z,98475.56
2023-02-25T12:18:24.013Z,98473.97
2023-02-25T12:21:05.760Z,98480.66
2023-02-25T12:23:33.582Z,98492.16
2023-02-25T12:26:25.660Z,98484.69
2023-02-25T12:28:58.182Z,98493.72
2023-02-25T12:31:41.000Z,98492.16
2023-02-25T12:34:26.158Z,98499.66
2023-02-25T12:36:55.620Z,98503.38
2023-02-25T12:39:29.817Z,98499.09
2023-02-25T12:42:15.016Z,98514.59
2023-02-25T12:44:41.473Z,98514.63
2023-02-25T12:47:11.024Z,98521.00
2023-02-25T12:49:40.732Z,98516.44
2023-02-25T12:52:15.464Z,98513.81
2023-02-25T12:54:44.147Z,98517.25
2023-02-25T12:57:20.712Z,98515.66
2023-02-25T13:00:09.581Z,98522.34
2023-02-25T13:02:42.143Z,98530.66
2023-02-25T13:05:20.692Z,98538.09
2023-02-25T13:07:59.109Z,98535.16
2023-02-25T13:10:34.834Z,98534.91
2023-02-25T13:13:16.457Z,98539.19
2023-02-25T13:16:18.544Z,98544.00
2023-02-25T13:19:02.971Z,98551.47
2023-02-25T13:21:41.869Z,98560.56
2023-02-25T13:24:11.242Z,98547.72
2023-02-25T13:26:38.065Z,98553.06
2023-02-25T13:29:24.459Z,98555.72
2023-02-25T13:31:51.300Z,98573.38
2023-02-25T13:34:17.787Z,98566.16
2023-02-25T13:36:57.128Z,98557.09
2023-02-25T13:39:39.114Z,98556.00
2023-02-25T13:42:19.075Z,98558.97
2023-02-25T13:44:51.627Z,98565.63
2023-02-25T13:47:18.087Z,98551.75
2023-02-25T13:50:03.643Z,98561.09
2023-02-25T13:52:49.091Z,98566.97
2023-02-25T13:55:24.881Z,98573.41
2023-02-25T13:58:04.850Z,98565.91
2023-02-25T14:00:31.268Z,98566.72
2023-02-25T14:03:16.705Z,98568.88
2023-02-25T14:05:49.386Z,98570.72
2023-02-25T14:08:28.760Z,98569.63
2023-02-25T14:11:16.044Z,98560.53
2023-02-25T14:13:46.993Z,98557.91
2023-02-25T14:16:16.334Z,98561.66
2023-02-25T14:18:46.746Z,98567.25
2023-02-25T14:21:19.245Z,98566.44
2023-02-25T14:23:55.246Z,98564.31
2023-02-25T14:26:45.070Z,98567.50
2023-02-25T14:29:21.059Z,98572.84
2023-02-25T14:31:59.853Z,98569.66
2023-02-25T14:34:32.406Z,98572.34
2023-02-25T14:37:16.195Z,98573.91
2023-02-25T14:40:03.200Z,98571.25
2023-02-25T14:42:30.841Z,98557.91
2023-02-25T14:44:57.396Z,98566.44
2023-02-25T14:47:36.833Z,98571.25
2023-02-25T14:50:09.467Z,98564.84
2023-02-25T14:52:45.962Z,98569.91
2023-02-25T14:55:18.676Z,98582.50
2023-02-25T14:58:04.016Z,98587.31
2023-02-25T15:00:49.386Z,98585.44
2023-02-25T15:03:34.720Z,98583.00
2023-02-25T15:06:13.452Z,98587.84
2023-02-25T15:08:58.422Z,98586.22
2023-02-25T15:11:26.430Z,98575.53
2023-02-25T15:14:07.949Z,98588.63
2023-02-25T15:16:54.647Z,98588.91
2023-02-25T15:19:43.782Z,98579.28
2023-02-25T15:22:21.842Z,98591.31
2023-02-25T15:24:48.750Z,98591.03
2023-02-25T15:27:36.053Z,98596.91
2023-02-25T15:30:09.023Z,98592.63
2023-02-25T15:32:55.220Z,98596.38
2023-02-25T15:35:24.333Z,98602.81
2023-02-25T15:37:50.787Z,98599.53
2023-02-25T15:40:17.296Z,98602.72
2023-02-25T15:42:54.526Z,98598.69
2023-02-25T15:45:27.560Z,98598.97
2023-02-25T15:48:20.374Z,98597.84
2023-02-25T15:50:46.975Z,98602.06
2023-02-25T15:53:23.596Z,98597.19
2023-02-25T15:55:53.933Z,98599.94
2023-02-25T15:58:23.536Z,98589.75
2023-02-25T16:00:53.170Z,98589.16
2023-02-25T16:03:28.870Z,98596.50
2023-02-25T16:06:00.111Z,98585.34
2023-02-25T16:08:28.816Z,98587.03
2023-02-25T16:10:57.836Z,98589.41
2023-02-25T16:13:32.265Z,98594.44
2023-02-25T16:15:59.417Z,98582.66
2023-02-25T16:18:30.502Z,98578.16
2023-02-25T16:21:19.966Z,98589.69
2023-02-25T16:23:46.546Z,98590.38
2023-02-25T16:26:25.653Z,98583.59
2023-02-25T16:28:57.551Z,98572.00
2023-02-25T16:31:27.463Z,98581.09
2023-02-25T16:34:02.723Z,98573.03
2023-02-25T16:36:39.219Z,98569.25
2023-02-25T16:39:10.628Z,98573.06
2023-02-25T16:41:39.233Z,98575.25
2023-02-25T16:44:06.604Z,98578.88
2023-02-25T16:46:36.063Z,98592.16
2023-02-25T16:49:07.983Z,98595.88
2023-02-25T16:51:39.567Z,98594.38
2023-02-25T16:54:13.505Z,98608.72
2023-02-25T16:56:42.045Z,98600.38
2023-02-25T16:59:14.649Z,98585.72
2023-02-25T17:01:53.373Z,98593.47
2023-02-25T17:04:33.674Z,98590.38
2023-02-25T17:07:05.918Z,98596.97
2023-02-25T17:09:32.510Z,98598.19
2023-02-25T17:12:00.677Z,98578.44
2023-02-25T17:14:29.416Z,98577.72
2023-02-25T17:16:57.791Z,98586.91
2023-02-25T17:19:24.993Z,98594.22
2023-02-25T17:21:54.578Z,98581.94
2023-02-25T17:24:23.590Z,98581.94
2023-02-25T17:26:53.801Z,98584.66
2023-02-25T17:29:21.585Z,98591.13
2023-02-25T17:31:50.676Z,98598.00
2023-02-25T17:34:27.162Z,98599.56
2023-02-25T17:36:54.237Z,98596.84
2023-02-25T17:39:22.388Z,98597.44
2023-02-25T17:41:49.678Z,98610.28
2023-02-25T17:44:35.078Z,98609.47
2023-02-25T17:47:02.173Z,98609.13
2023-02-25T17:49:30.072Z,98610.66
2023-02-25T17:52:02.707Z,98612.09
2023-02-25T17:54:32.934Z,98616.56
2023-02-25T17:57:01.040Z,98613.78
2023-02-25T17:59:27.472Z,98614.38
2023-02-25T18:01:58.397Z,98622.03
2023-02-25T18:04:41.342Z,98618.69
2023-02-25T18:07:20.599Z,98635.19
2023-02-25T18:09:47.368Z,98634.84
2023-02-25T18:12:35.201Z,98632.88
2023-02-25T18:15:04.078Z,98625.38
2023-02-25T18:17:38.001Z,98629.81
2023-02-25T18:20:06.548Z,98632.50
2023-02-25T18:22:33.042Z,98639.13
2023-02-25T18:25:01.253Z,98630.94
2023-02-25T18:27:32.022Z,98635.78
2023-02-25T18:30:00.361Z,98635.59
2023-02-25T18:32:28.779Z,98641.75
2023-02-25T18:34:55.320Z,98654.44
2023-02-25T18:37:23.108Z,98656.72
2023-02-25T18:39:51.372Z,98644.47
2023-02-25T18:42:18.565Z,98652.28
2023-02-25T18:44:45.775Z,98649.34
2023-02-25T18:47:12.584Z,98653.63
2023-02-25T18:49:40.749Z,98652.28
2023-02-25T18:52:13.649Z,98655.03
2023-02-25T18:54:41.605Z,98650.31
2023-02-25T18:57:20.289Z,98669.59
2023-02-25T18:59:46.829Z,98676.38
2023-02-25T19:02:24.471Z,98678.53
2023-02-25T19:04:51.375Z,98678.59
2023-02-25T19:07:17.885Z,98668.59
2023-02-25T19:09:44.457Z,98696.34
2023-02-25T19:12:14.891Z,98703.19
2023-02-25T19:14:42.616Z,98705.56
2023-02-25T19:17:16.368Z,98700.41
2023-02-25T19:19:48.373Z,98709.06
2023-02-25T19:22:15.811Z,98712.81
2023-02-25T19:24:43.070Z,98727.13
2023-02-25T19:27:17.113Z,98723.53
2023-02-25T19:29:43.591Z,98729.94
2023-02-25T19:32:10.102Z,98726.63
2023-02-25T19:34:37.790Z,98748.91
2023-02-25T19:37:04.364Z,98750.44
2023-02-25T19:39:32.099Z,98750.41
2023-02-25T19:41:58.539Z,98756.69
2023-02-25T19:44:25.062Z,98744.13
2023-02-25T19:46:51.634Z,98739.72
2023-02-25T19:49:18.204Z,98752.44
2023-02-25T19:51:44.881Z,98756.59
2023-02-25T19:54:11.375Z,98756.59
2023-02-25T19:56:37.876Z,98744.63
2023-02-25T19:59:04.759Z,98745.69
2023-02-25T20:01:31.289Z,98761.81
2023-02-25T20:03:59.229Z,98774.09
2023-02-25T20:06:27.285Z,98778.31
2023-02-25T20:08:57.265Z,98782.44
2023-02-25T20:11:23.780Z,98782.25
2023-02-25T20:13:50.595Z,98781.59
2023-02-25T20:16:18.252Z,98791.91
2023-02-25T20:18:48.415Z,98789.69
2023-02-25T20:21:15.215Z,98787.44
2023-02-25T20:23:41.710Z,98788.69
2023-02-25T20:26:10.021Z,98789.09
2023-02-25T20:28:36.737Z,98801.94
2023-02-25T20:31:04.779Z,98804.56
2023-02-25T20:33:31.265Z,98796.78
2023-02-25T20:35:57.850Z,98796.25
2023-02-25T20:38:28.602Z,98802.56
2023-02-25T20:40:56.296Z,98813.50
2023-02-25T20:43:22.973Z,98823.19
2023-02-25T20:45:49.571Z,98817.31
2023-02-25T20:48:24.924Z,98819.06
2023-02-25T20:50:51.505Z,98817.03
2023-02-25T20:53:19.166Z,98819.94
2023-02-25T20:55:45.735Z,98821.25
2023-02-25T20:58:12.247Z,98820.22
2023-02-25T21:00:38.853Z,98815.47
2023-02-25T21:03:05.463Z,98822.88
2023-02-25T21:05:33.444Z,98827.69
2023-02-25T21:07:59.887Z,98843.06
2023-02-25T21:10:27.691Z,98837.75
2023-02-25T21:12:55.223Z,98842.91
2023-02-25T21:15:21.827Z,98839.53
2023-02-25T21:17:48.280Z,98855.31
2023-02-25T21:20:14.842Z,98863.72
2023-02-25T21:22:41.353Z,98854.38
2023-02-25T21:25:08.080Z,98862.41
2023-02-25T21:27:34.673Z,98873.19
2023-02-25T21:30:04.756Z,98874.38
2023-02-25T21:32:31.410Z,98870.47
2023-02-25T21:34:58.058Z,98869.38
2023-02-25T21:37:24.597Z,98869.78
2023-02-25T21:39:51.107Z,98862.28
2023-02-25T21:42:17.734Z,98867.03
2023-02-25T21:44:44.177Z,98872.78
2023-02-25T21:47:10.640Z,98873.97
2023-02-25T21:49:38.512Z,98871.16
2023-02-25T21:52:05.201Z,98866.56
2023-02-25T21:54:33.469Z,98861.69
2023-02-25T21:56:59.978Z,98872.72
2023-02-25T21:59:28.882Z,98872.34
2023-02-25T22:01:55.471Z,98869.13
2023-02-25T22:04:22.163Z,98882.06
2023-02-25T22:06:49.252Z,98871.09
2023-02-25T22:09:16.650Z,98875.06
2023-02-25T22:11:43.605Z,98875.59
2023-02-25T22:14:10.587Z,98886.00
2023-02-25T22:16:37.736Z,98877.94
2023-02-25T22:19:04.251Z,98875.81
2023-02-25T22:21:32.249Z,98878.19
2023-02-25T22:24:02.181Z,98891.44
2023-02-25T22:26:31.662Z,98883.09
2023-02-25T22:29:02.867Z,98887.59
2023-02-25T22:31:30.405Z,98883.38
2023-02-25T22:33:57.509Z,98876.63
2023-02-25T22:36:24.576Z,98889.25
2023-02-25T22:38:51.300Z,98891.13
2023-02-25T22:41:22.416Z,98884.97
2023-02-25T22:43:49.030Z,98895.03
2023-02-25T22:46:16.794Z,98897.25
2023-02-25T22:48:44.631Z,98900.16
2023-02-25T22:51:11.990Z,98899.09
2023-02-25T22:53:40.307Z,98887.91
2023-02-25T22:56:08.996Z,98896.38
2023-02-25T22:58:38.392Z,98896.50
2023-02-25T23:01:05.361Z,98902.16
2023-02-25T23:03:31.823Z,98898.91
2023-02-25T23:05:58.287Z,98905.09
2023-02-25T23:08:24.882Z,98901.06
2023-02-25T23:10:51.522Z,98899.44
2023-02-25T23:13:18.098Z,98904.38
2023-02-25T23:15:47.993Z,98914.25
2023-02-25T23:18:15.187Z,98914.16
2023-02-25T23:20:42.108Z,98918.84
2023-02-25T23:23:10.709Z,98915.31
2023-02-25T23:25:40.110Z,98904.50
2023-02-25T23:28:07.889Z,98896.56
2023-02-25T23:30:36.587Z,98911.34
2023-02-25T23:33:03.205Z,98915.63
2023-02-25T23:35:29.690Z,98916.91
2023-02-25T23:37:57.422Z,98920.94
2023-02-25T23:40:23.932Z,98919.22
2023-02-25T23:42:51.585Z,98921.41
2023-02-25T23:45:18.083Z,98915.28
2023-02-25T23:47:44.565Z,98918.19
2023-02-25T23:50:15.771Z,98911.66
2023-02-25T23:52:43.517Z,98904.97
2023-02-25T23:55:11.693Z,98904.25
2023-02-25T23:57:38.541Z,98904.97
